Time;durP1;ratioP1;P1;durP2;ratioP2;P2;SDS_P1;SDS_P2;PMS_P1;PMS_P2;Temp;Humidity;BMP_temperature;BMP_pressure;BME280_temperature;BME280_humidity;BME280_pressure;Samples;Min_cycle;Max_cycle;Signal;HPM_P1;HPM_P2
2022/08/29 00:02:06;;;;;;;29.00;18.20;;;;;;;;;;5095161;28;20939;-74
2022/08/29 00:04:34;;;;;;;35.20;19.60;;;;;;;;;;5094328;28;20478;-74
2022/08/29 00:07:02;;;;;;;26.37;18.10;;;;;;;;;;5094205;28;20486;-74
2022/08/29 00:09:29;;;;;;;33.20;20.40;;;;;;;;;;5094608;28;20469;-74
2022/08/29 00:11:57;;;;;;;31.90;18.77;;;;;;;;;;5094714;28;20983;-74
2022/08/29 00:14:24;;;;;;;36.67;21.37;;;;;;;;;;5094171;28;20478;-74
2022/08/29 00:16:51;;;;;;;38.17;18.73;;;;;;;;;;5094489;28;20447;-74
2022/08/29 00:19:18;;;;;;;34.80;19.30;;;;;;;;;;5094411;28;20447;-74
2022/08/29 00:21:45;;;;;;;34.83;18.73;;;;;;;;;;5094509;28;20811;-74
2022/08/29 00:24:14;;;;;;;34.93;20.60;;;;;;;;;;5094090;28;20844;-74
2022/08/29 00:26:42;;;;;;;39.10;22.13;;;;;;;;;;5094153;28;20483;-74
2022/08/29 00:29:09;;;;;;;39.07;21.00;;;;;;;;;;5094396;28;20451;-74
2022/08/29 00:31:36;;;;;;;38.23;22.37;;;;;;;;;;5094251;28;20521;-74
2022/08/29 00:34:03;;;;;;;38.03;22.93;;;;;;;;;;5093957;28;20466;-74
2022/08/29 00:36:30;;;;;;;39.60;23.03;;;;;;;;;;5094210;28;20439;-74
2022/08/29 00:38:57;;;;;;;36.80;22.60;;;;;;;;;;5094184;28;20449;-74
2022/08/29 00:41:26;;;;;;;34.60;21.13;;;;;;;;;;5093942;28;20834;-74
2022/08/29 00:43:53;;;;;;;40.73;20.83;;;;;;;;;;5093880;28;21101;-74
2022/08/29 00:46:32;;;;;;;41.37;23.70;;;;;;;;;;5093867;28;20862;-74
2022/08/29 00:49:01;;;;;;;41.20;23.07;;;;;;;;;;5094042;28;20450;-74
2022/08/29 00:51:28;;;;;;;38.97;22.23;;;;;;;;;;5093859;28;20451;-74
2022/08/29 00:53:59;;;;;;;56.50;23.27;;;;;;;;;;5093624;28;20848;-74
2022/08/29 00:56:28;;;;;;;96.07;23.00;;;;;;;;;;5093834;28;20439;-74
2022/08/29 00:58:57;;;;;;;54.77;23.37;;;;;;;;;;5093884;28;20991;-74
2022/08/29 01:01:25;;;;;;;115.63;23.70;;;;;;;;;;5093731;28;20798;-75
2022/08/29 01:03:52;;;;;;;84.27;23.57;;;;;;;;;;5093503;28;20482;-74
2022/08/29 01:06:20;;;;;;;90.63;23.00;;;;;;;;;;5093167;28;20862;-74
2022/08/29 01:08:48;;;;;;;114.13;23.70;;;;;;;;;;5093691;28;20450;-74
2022/08/29 01:14:03;;;;;;;110.17;23.90;;;;;;;;;;5093314;28;20446;-74
2022/08/29 01:16:31;;;;;;;85.93;19.60;;;;;;;;;;5093300;28;20447;-74
2022/08/29 01:19:01;;;;;;;126.27;21.77;;;;;;;;;;5093615;28;20956;-74
2022/08/29 01:21:31;;;;;;;130.10;21.87;;;;;;;;;;5093440;28;20956;-74
2022/08/29 01:24:01;;;;;;;126.67;24.37;;;;;;;;;;5093102;28;20478;-74
2022/08/29 01:26:30;;;;;;;151.00;22.13;;;;;;;;;;5093276;28;20482;-74
2022/08/29 01:28:57;;;;;;;135.93;22.87;;;;;;;;;;5093405;28;20946;-74
2022/08/29 01:31:26;;;;;;;104.90;19.30;;;;;;;;;;5093219;28;20936;-74
2022/08/29 01:33:55;;;;;;;90.17;21.00;;;;;;;;;;5092965;28;20471;-74
2022/08/29 01:36:24;;;;;;;92.83;21.10;;;;;;;;;;5093300;28;20447;-74
2022/08/29 01:38:51;;;;;;;133.83;21.40;;;;;;;;;;5093122;28;20447;-74
2022/08/29 01:41:19;;;;;;;111.37;21.40;;;;;;;;;;5092880;28;20597;-74
2022/08/29 01:43:50;;;;;;;101.47;21.73;;;;;;;;;;5092795;28;20471;-74
2022/08/29 01:46:18;;;;;;;110.47;20.23;;;;;;;;;;5093050;28;20486;-74
2022/08/29 01:48:46;;;;;;;78.17;19.83;;;;;;;;;;5093187;28;20446;-74
2022/08/29 01:51:14;;;;;;;139.37;21.47;;;;;;;;;;5093081;28;20454;-74
2022/08/29 01:53:41;;;;;;;89.20;22.63;;;;;;;;;;5092817;28;20482;-74
2022/08/29 01:56:13;;;;;;;171.70;22.50;;;;;;;;;;5093061;28;20454;-74
2022/08/29 01:58:41;;;;;;;84.00;20.40;;;;;;;;;;5092970;28;20458;-74
2022/08/29 02:01:10;;;;;;;76.30;20.93;;;;;;;;;;5092983;28;20454;-74
2022/08/29 02:03:38;;;;;;;145.13;21.13;;;;;;;;;;5092670;28;20466;-74
2022/08/29 02:06:08;;;;;;;139.00;20.80;;;;;;;;;;5092426;28;21006;-74
2022/08/29 02:08:35;;;;;;;80.07;19.37;;;;;;;;;;5092866;28;20555;-75
2022/08/29 02:11:02;;;;;;;57.60;18.53;;;;;;;;;;5092936;28;20951;-74
2022/08/29 02:13:29;;;;;;;60.43;18.30;;;;;;;;;;5092489;28;20474;-74
2022/08/29 02:15:56;;;;;;;32.37;18.73;;;;;;;;;;5092841;28;20982;-74
2022/08/29 02:18:25;;;;;;;43.13;18.47;;;;;;;;;;5092887;28;20447;-74
2022/08/29 02:20:52;;;;;;;29.97;16.90;;;;;;;;;;5092732;28;20454;-74
2022/08/29 02:23:19;;;;;;;38.13;17.67;;;;;;;;;;5092581;28;20470;-74
2022/08/29 02:25:48;;;;;;;29.13;16.60;;;;;;;;;;5096759;28;20473;-74
2022/08/29 02:28:18;;;;;;;28.50;16.53;;;;;;;;;;5096619;28;20508;-74
2022/08/29 02:30:47;;;;;;;29.17;18.00;;;;;;;;;;5096701;28;20446;-74
2022/08/29 02:33:15;;;;;;;26.30;14.90;;;;;;;;;;5096387;28;20890;-74
2022/08/29 02:35:43;;;;;;;31.07;18.07;;;;;;;;;;5096301;28;20447;-74
2022/08/29 02:38:10;;;;;;;32.83;16.67;;;;;;;;;;5096549;28;20457;-74
2022/08/29 02:40:38;;;;;;;26.10;16.07;;;;;;;;;;5096358;28;20451;-74
2022/08/29 02:43:06;;;;;;;29.93;17.30;;;;;;;;;;5096534;28;20454;-74
2022/08/29 02:45:33;;;;;;;23.57;15.07;;;;;;;;;;5096274;28;20807;-74
2022/08/29 02:48:00;;;;;;;23.80;15.30;;;;;;;;;;5096192;28;21010;-74
2022/08/29 02:50:28;;;;;;;21.33;14.50;;;;;;;;;;5096268;28;20454;-74
2022/08/29 02:52:56;;;;;;;23.73;15.80;;;;;;;;;;5096165;28;20545;-74
2022/08/29 02:55:24;;;;;;;22.37;13.57;;;;;;;;;;5095882;28;20451;-74
2022/08/29 02:57:52;;;;;;;26.30;16.30;;;;;;;;;;5096189;28;20819;-74
2022/08/29 03:00:21;;;;;;;23.20;14.70;;;;;;;;;;5096066;28;20483;-74
2022/08/29 03:02:49;;;;;;;23.90;15.97;;;;;;;;;;5096138;28;20530;-74
2022/08/29 03:05:16;;;;;;;21.07;14.13;;;;;;;;;;5095294;28;20466;-73
2022/08/29 03:07:44;;;;;;;22.57;14.70;;;;;;;;;;5095887;28;20497;-74
2022/08/29 03:10:13;;;;;;;16.30;11.80;;;;;;;;;;5095813;28;20446;-74
2022/08/29 03:12:40;;;;;;;17.73;12.30;;;;;;;;;;5095874;28;20824;-74
2022/08/29 03:15:09;;;;;;;17.20;12.90;;;;;;;;;;5095520;28;20466;-74
2022/08/29 03:17:36;;;;;;;16.07;12.20;;;;;;;;;;5095787;28;20447;-74
2022/08/29 03:20:03;;;;;;;21.57;14.27;;;;;;;;;;5095645;28;20454;-74
2022/08/29 03:22:30;;;;;;;20.53;12.97;;;;;;;;;;5095801;28;20462;-74
2022/08/29 03:25:00;;;;;;;17.23;13.00;;;;;;;;;;5095411;28;20474;-74
2022/08/29 03:27:29;;;;;;;16.30;11.40;;;;;;;;;;5095437;28;20509;-74
2022/08/29 03:29:56;;;;;;;16.70;11.17;;;;;;;;;;5095551;28;20446;-74
2022/08/29 03:32:23;;;;;;;15.70;11.70;;;;;;;;;;5095557;28;20816;-74
2022/08/29 03:34:50;;;;;;;15.13;10.70;;;;;;;;;;5094754;28;20481;-74
2022/08/29 03:37:17;;;;;;;17.10;12.87;;;;;;;;;;5095346;28;20446;-74
2022/08/29 03:39:45;;;;;;;14.67;10.77;;;;;;;;;;5095339;28;20806;-74
2022/08/29 03:42:12;;;;;;;15.60;11.13;;;;;;;;;;5095095;28;20464;-74
2022/08/29 03:44:42;;;;;;;12.90;10.00;;;;;;;;;;5094960;28;20475;-74
2022/08/29 03:47:09;;;;;;;11.17;9.20;;;;;;;;;;5095164;28;20522;-74
2022/08/29 03:49:36;;;;;;;9.80;7.80;;;;;;;;;;5095091;28;20538;-74
2022/08/29 03:52:04;;;;;;;10.63;8.40;;;;;;;;;;5095286;28;20461;-74
2022/08/29 03:54:31;;;;;;;10.40;8.43;;;;;;;;;;5094598;28;20850;-74
2022/08/29 03:56:58;;;;;;;11.10;8.63;;;;;;;;;;5094981;28;20451;-74
2022/08/29 03:59:25;;;;;;;15.17;10.90;;;;;;;;;;5094790;28;20465;-74
2022/08/29 04:01:54;;;;;;;10.47;8.23;;;;;;;;;;5095166;28;20458;-74
2022/08/29 04:07:07;;;;;;;10.00;7.83;;;;;;;;;;5094193;28;20515;-74
2022/08/29 04:09:34;;;;;;;9.57;7.80;;;;;;;;;;5094680;28;20451;-74
2022/08/29 04:12:02;;;;;;;10.23;8.37;;;;;;;;;;5094918;28;20818;-74
2022/08/29 04:14:29;;;;;;;10.73;8.83;;;;;;;;;;5094334;28;20991;-74
2022/08/29 04:16:58;;;;;;;15.50;10.17;;;;;;;;;;5094597;28;20500;-74
2022/08/29 04:19:25;;;;;;;10.10;9.10;;;;;;;;;;5094440;28;20932;-74
2022/08/29 04:21:52;;;;;;;9.93;7.80;;;;;;;;;;5094483;28;20474;-74
2022/08/29 04:24:19;;;;;;;10.97;9.27;;;;;;;;;;5094284;28;20857;-74
2022/08/29 04:26:46;;;;;;;9.27;8.37;;;;;;;;;;5094196;28;20581;-74
2022/08/29 04:29:14;;;;;;;10.50;8.30;;;;;;;;;;5094385;28;20959;-74
2022/08/29 04:31:42;;;;;;;12.90;9.40;;;;;;;;;;5094309;28;20456;-74
2022/08/29 04:34:11;;;;;;;13.20;11.33;;;;;;;;;;5093991;28;20470;-74
2022/08/29 04:36:40;;;;;;;12.30;8.93;;;;;;;;;;5094158;28;20454;-74
2022/08/29 04:39:07;;;;;;;18.13;13.43;;;;;;;;;;5094448;28;20951;-75
2022/08/29 04:41:35;;;;;;;13.43;10.23;;;;;;;;;;5094078;28;20833;-74
2022/08/29 04:44:02;;;;;;;12.10;9.13;;;;;;;;;;5093701;28;20535;-74
2022/08/29 04:46:30;;;;;;;9.07;7.93;;;;;;;;;;5093209;28;20447;-74
2022/08/29 04:48:57;;;;;;;11.00;8.23;;;;;;;;;;5094015;28;20488;-74
2022/08/29 04:51:25;;;;;;;12.23;10.30;;;;;;;;;;5093980;28;20457;-74
2022/08/29 04:53:53;;;;;;;12.50;9.93;;;;;;;;;;5093712;28;20851;-74
2022/08/29 04:56:21;;;;;;;10.67;8.43;;;;;;;;;;5093820;28;20449;-74
2022/08/29 04:58:49;;;;;;;12.10;7.50;;;;;;;;;;5093898;28;20455;-74
2022/08/29 05:01:17;;;;;;;9.43;8.33;;;;;;;;;;5093732;28;20455;-74
2022/08/29 05:03:45;;;;;;;11.03;8.23;;;;;;;;;;5093290;28;20481;-73
2022/08/29 05:06:13;;;;;;;12.20;8.20;;;;;;;;;;5093405;28;20833;-74
2022/08/29 05:08:42;;;;;;;8.70;7.30;;;;;;;;;;5093502;28;20858;-74
2022/08/29 05:11:11;;;;;;;11.03;8.17;;;;;;;;;;5093657;28;20457;-74
2022/08/29 05:13:38;;;;;;;9.97;7.10;;;;;;;;;;5093282;28;20493;-74
2022/08/29 05:16:05;;;;;;;14.40;8.30;;;;;;;;;;5093546;28;20556;-74
2022/08/29 05:18:33;;;;;;;9.37;8.00;;;;;;;;;;5093460;28;20443;-74
2022/08/29 05:21:00;;;;;;;11.53;8.70;;;;;;;;;;5093351;28;20883;-74
2022/08/29 05:23:27;;;;;;;8.30;7.37;;;;;;;;;;5093234;28;20466;-73
2022/08/29 05:25:57;;;;;;;11.10;8.13;;;;;;;;;;5093379;28;20450;-74
2022/08/29 05:28:25;;;;;;;15.17;9.27;;;;;;;;;;5093113;28;20482;-73
2022/08/29 05:30:52;;;;;;;13.20;8.47;;;;;;;;;;5093417;28;20464;-74
2022/08/29 05:33:20;;;;;;;10.73;7.07;;;;;;;;;;5093106;28;20478;-74
2022/08/29 05:35:47;;;;;;;11.33;8.43;;;;;;;;;;5093001;28;20450;-73
2022/08/29 05:38:14;;;;;;;9.57;7.00;;;;;;;;;;5093231;28;20442;-74
2022/08/29 05:40:42;;;;;;;7.33;6.63;;;;;;;;;;5092966;28;20454;-74
2022/08/29 05:43:12;;;;;;;7.80;7.00;;;;;;;;;;5093225;28;20470;-74
2022/08/29 05:45:40;;;;;;;7.27;6.57;;;;;;;;;;5092919;28;20482;-74
2022/08/29 05:48:09;;;;;;;8.60;7.07;;;;;;;;;;5093030;28;20490;-73
2022/08/29 05:50:38;;;;;;;10.23;7.07;;;;;;;;;;5093032;28;20450;-73
2022/08/29 05:53:05;;;;;;;7.73;6.90;;;;;;;;;;5093084;28;20928;-73
2022/08/29 05:55:32;;;;;;;6.93;5.97;;;;;;;;;;5092751;28;20970;-73
2022/08/29 05:58:00;;;;;;;7.50;5.60;;;;;;;;;;5094504;28;20813;-73
2022/08/29 06:00:28;;;;;;;14.50;6.10;;;;;;;;;;5097127;28;20450;-73
2022/08/29 06:02:55;;;;;;;6.10;5.50;;;;;;;;;;5097043;28;20446;-73
2022/08/29 06:05:22;;;;;;;5.90;5.30;;;;;;;;;;5096395;28;20450;-72
2022/08/29 06:07:50;;;;;;;7.10;5.10;;;;;;;;;;5097161;28;20489;-73
2022/08/29 06:10:17;;;;;;;5.67;5.10;;;;;;;;;;5092522;28;20988;-73
2022/08/29 06:12:47;;;;;;;6.73;6.03;;;;;;;;;;5077894;28;20456;-73
2022/08/29 06:15:14;;;;;;;7.83;5.13;;;;;;;;;;5075260;28;20539;-73
2022/08/29 06:17:42;;;;;;;5.17;4.67;;;;;;;;;;5075141;28;20902;-73
2022/08/29 06:20:10;;;;;;;5.00;4.60;;;;;;;;;;5075200;28;20451;-73
2022/08/29 06:22:38;;;;;;;7.10;5.10;;;;;;;;;;5080094;28;20961;-73
2022/08/29 06:25:05;;;;;;;5.20;4.70;;;;;;;;;;5095318;28;20475;-73
2022/08/29 06:27:33;;;;;;;6.07;5.57;;;;;;;;;;5096458;28;20864;-73
2022/08/29 06:30:00;;;;;;;7.40;4.83;;;;;;;;;;5096141;28;20943;-74
2022/08/29 06:32:27;;;;;;;5.33;4.83;;;;;;;;;;5096384;28;20450;-73
2022/08/29 06:34:55;;;;;;;5.97;4.67;;;;;;;;;;5096204;28;20462;-73
2022/08/29 06:37:22;;;;;;;4.57;4.17;;;;;;;;;;5096327;28;20450;-74
2022/08/29 06:39:49;;;;;;;6.00;4.50;;;;;;;;;;5096479;28;20959;-74
2022/08/29 06:42:17;;;;;;;4.90;4.37;;;;;;;;;;5096255;28;20458;-74
2022/08/29 06:44:45;;;;;;;5.80;5.30;;;;;;;;;;5096445;28;20832;-74
2022/08/29 06:47:12;;;;;;;4.80;4.37;;;;;;;;;;5096303;28;20549;-74
2022/08/29 06:49:39;;;;;;;5.20;4.80;;;;;;;;;;5096157;28;20454;-74
2022/08/29 06:52:08;;;;;;;5.17;4.70;;;;;;;;;;5096203;28;20447;-74
2022/08/29 06:54:35;;;;;;;4.50;4.10;;;;;;;;;;5095897;28;20470;-74
2022/08/29 06:57:02;;;;;;;5.40;4.00;;;;;;;;;;5096498;28;20833;-74
2022/08/29 06:59:29;;;;;;;4.53;4.20;;;;;;;;;;5096252;28;20457;-74
2022/08/29 07:01:56;;;;;;;4.57;4.27;;;;;;;;;;5096317;28;20450;-74
2022/08/29 07:04:23;;;;;;;5.57;5.10;;;;;;;;;;5095780;28;20835;-74
2022/08/29 07:06:51;;;;;;;4.90;4.50;;;;;;;;;;5095835;28;20446;-74
2022/08/29 07:09:19;;;;;;;5.20;4.80;;;;;;;;;;5095329;28;20859;-74
2022/08/29 07:11:46;;;;;;;4.20;3.90;;;;;;;;;;5095838;28;20458;-74
2022/08/29 07:14:13;;;;;;;5.00;4.60;;;;;;;;;;5095673;28;20849;-73
2022/08/29 07:16:41;;;;;;;7.80;4.83;;;;;;;;;;5095924;28;20447;-73
2022/08/29 07:19:09;;;;;;;9.80;4.73;;;;;;;;;;5095851;28;20936;-73
2022/08/29 07:21:36;;;;;;;4.53;4.23;;;;;;;;;;5096084;28;20446;-74
2022/08/29 07:24:03;;;;;;;4.80;4.40;;;;;;;;;;5095391;28;20697;-74
2022/08/29 07:26:35;;;;;;;4.63;4.07;;;;;;;;;;5095717;28;20446;-74
2022/08/29 07:29:02;;;;;;;7.30;4.30;;;;;;;;;;5095721;28;20487;-74
2022/08/29 07:31:30;;;;;;;5.27;4.87;;;;;;;;;;5095452;28;20992;-73
2022/08/29 07:33:57;;;;;;;4.20;3.80;;;;;;;;;;5095566;28;20573;-74
2022/08/29 07:36:24;;;;;;;5.20;4.80;;;;;;;;;;5095326;28;20451;-74
2022/08/29 07:38:51;;;;;;;6.10;5.60;;;;;;;;;;5095723;28;20438;-73
2022/08/29 07:41:19;;;;;;;5.67;5.20;;;;;;;;;;5095191;28;20469;-73
2022/08/29 07:43:49;;;;;;;5.43;4.80;;;;;;;;;;5094914;28;20475;-73
2022/08/29 07:46:18;;;;;;;5.27;4.40;;;;;;;;;;5095110;28;20470;-73
2022/08/29 07:48:45;;;;;;;5.97;5.50;;;;;;;;;;5095135;28;20999;-74
2022/08/29 07:51:13;;;;;;;6.10;5.60;;;;;;;;;;5095261;28;20449;-73
2022/08/29 07:53:41;;;;;;;6.93;5.60;;;;;;;;;;5095017;28;20475;-73
2022/08/29 07:56:09;;;;;;;6.00;5.50;;;;;;;;;;5095311;28;20940;-73
2022/08/29 07:58:36;;;;;;;7.10;6.10;;;;;;;;;;5094842;28;20477;-73
2022/08/29 08:01:05;;;;;;;6.40;5.90;;;;;;;;;;5095216;28;20457;-74
2022/08/29 08:03:32;;;;;;;8.70;6.63;;;;;;;;;;5094766;28;20473;-73
2022/08/29 08:05:59;;;;;;;6.67;5.90;;;;;;;;;;5094332;28;20467;-73
2022/08/29 08:08:26;;;;;;;6.57;6.00;;;;;;;;;;5094699;28;20490;-73
2022/08/29 08:10:53;;;;;;;7.77;7.07;;;;;;;;;;5094978;28;20451;-73
2022/08/29 08:13:21;;;;;;;6.63;6.03;;;;;;;;;;5094568;28;20842;-73
2022/08/29 08:15:48;;;;;;;7.23;6.53;;;;;;;;;;5094613;28;20521;-73
2022/08/29 08:18:16;;;;;;;8.43;7.53;;;;;;;;;;5094894;28;20455;-73
2022/08/29 08:20:47;;;;;;;7.40;6.80;;;;;;;;;;5094519;28;20876;-73
2022/08/29 08:23:14;;;;;;;8.00;7.30;;;;;;;;;;5093853;28;20494;-73
2022/08/29 08:25:42;;;;;;;8.10;7.40;;;;;;;;;;5094341;28;20455;-73
2022/08/29 08:28:09;;;;;;;8.20;7.43;;;;;;;;;;5094572;28;20889;-73
2022/08/29 08:30:36;;;;;;;7.87;7.17;;;;;;;;;;5094500;28;20446;-73
2022/08/29 08:33:04;;;;;;;8.40;7.63;;;;;;;;;;5094227;28;20461;-74
2022/08/29 08:35:33;;;;;;;10.70;8.90;;;;;;;;;;5094055;28;20447;-74
2022/08/29 08:38:01;;;;;;;9.03;7.40;;;;;;;;;;5094456;28;20443;-74
2022/08/29 08:40:29;;;;;;;9.33;8.50;;;;;;;;;;5094024;28;20868;-73
2022/08/29 08:42:59;;;;;;;9.50;8.27;;;;;;;;;;5094171;28;20865;-74
2022/08/29 08:45:28;;;;;;;9.73;7.63;;;;;;;;;;5094211;28;20823;-73
2022/08/29 08:47:59;;;;;;;10.17;9.23;;;;;;;;;;5093939;28;20450;-73
2022/08/29 08:50:31;;;;;;;10.00;9.00;;;;;;;;;;5094006;28;20455;-74
2022/08/29 08:53:03;;;;;;;11.03;9.33;;;;;;;;;;5093848;28;20447;-73
2022/08/29 08:55:35;;;;;;;9.50;8.10;;;;;;;;;;5093682;28;20447;-74
2022/08/29 08:58:09;;;;;;;9.80;8.90;;;;;;;;;;5093929;28;20446;-74
2022/08/29 09:00:42;;;;;;;10.63;9.63;;;;;;;;;;5094151;28;20805;-74
2022/08/29 09:03:18;;;;;;;10.27;9.33;;;;;;;;;;5093641;28;20474;-74
2022/08/29 09:05:55;;;;;;;9.77;8.87;;;;;;;;;;5092979;28;20831;-74
2022/08/29 09:08:27;;;;;;;12.03;10.83;;;;;;;;;;5093571;28;20497;-74
2022/08/29 09:10:56;;;;;;;12.03;10.80;;;;;;;;;;5093848;28;20458;-74
2022/08/29 09:13:31;;;;;;;11.70;10.50;;;;;;;;;;5093376;28;20467;-73
2022/08/29 09:16:00;;;;;;;12.33;10.07;;;;;;;;;;5093704;28;20545;-74
2022/08/29 09:18:30;;;;;;;11.77;10.57;;;;;;;;;;5093447;28;20815;-73
2022/08/29 09:20:58;;;;;;;11.20;10.13;;;;;;;;;;5093639;28;20935;-74
2022/08/29 09:23:29;;;;;;;11.97;10.87;;;;;;;;;;5093227;28;20502;-73
2022/08/29 09:25:56;;;;;;;13.17;10.63;;;;;;;;;;5093373;28;20460;-73
2022/08/29 09:28:24;;;;;;;13.30;12.00;;;;;;;;;;5093250;28;20577;-74
2022/08/29 09:31:05;;;;;;;10.20;9.17;;;;;;;;;;5093334;28;20454;-74
2022/08/29 09:33:40;;;;;;;11.47;10.23;;;;;;;;;;5092529;28;20477;-73
2022/08/29 09:36:08;;;;;;;10.47;9.50;;;;;;;;;;5093336;28;20528;-74
2022/08/29 09:38:37;;;;;;;13.70;11.97;;;;;;;;;;5093341;28;20447;-73
2022/08/29 09:41:06;;;;;;;12.17;10.10;;;;;;;;;;5093064;28;20467;-73
2022/08/29 09:43:46;;;;;;;13.27;11.90;;;;;;;;;;5093015;28;20494;-73
2022/08/29 09:46:17;;;;;;;10.70;9.60;;;;;;;;;;5093223;28;20476;-74
2022/08/29 09:48:45;;;;;;;12.13;9.07;;;;;;;;;;5093114;28;20835;-74
2022/08/29 09:51:14;;;;;;;9.13;8.20;;;;;;;;;;5093047;28;20450;-73
2022/08/29 09:53:43;;;;;;;11.47;9.53;;;;;;;;;;5092928;28;20885;-73
2022/08/29 09:56:15;;;;;;;8.90;8.00;;;;;;;;;;5093143;28;20458;-73
2022/08/29 09:58:42;;;;;;;9.13;6.23;;;;;;;;;;5093154;28;20447;-73
2022/08/29 10:01:11;;;;;;;7.00;6.40;;;;;;;;;;5092926;28;20450;-73
2022/08/29 10:03:41;;;;;;;8.23;5.80;;;;;;;;;;5092694;28;20941;-73
2022/08/29 10:06:14;;;;;;;10.20;7.30;;;;;;;;;;5092555;28;20457;-73
2022/08/29 10:08:43;;;;;;;8.90;7.00;;;;;;;;;;5093133;28;20482;-74
2022/08/29 10:11:20;;;;;;;7.57;6.87;;;;;;;;;;5093092;28;20799;-74
2022/08/29 10:13:50;;;;;;;10.30;8.00;;;;;;;;;;5092524;28;20561;-74
2022/08/29 10:16:19;;;;;;;9.40;8.50;;;;;;;;;;5092752;28;20457;-74
2022/08/29 10:18:48;;;;;;;8.53;7.63;;;;;;;;;;5092954;28;20810;-74
2022/08/29 10:21:19;;;;;;;13.17;8.93;;;;;;;;;;5092950;28;20447;-74
2022/08/29 10:23:53;;;;;;;10.40;9.10;;;;;;;;;;5092638;28;20474;-73
2022/08/29 10:26:25;;;;;;;13.50;9.63;;;;;;;;;;5092744;28;20447;-73
2022/08/29 10:28:55;;;;;;;8.23;7.53;;;;;;;;;;5092653;28;20486;-74
2022/08/29 10:31:27;;;;;;;8.80;7.90;;;;;;;;;;5092734;28;20473;-74
2022/08/29 10:34:01;;;;;;;8.20;7.33;;;;;;;;;;5092452;28;20471;-73
2022/08/29 10:36:31;;;;;;;7.97;7.27;;;;;;;;;;5089741;28;20486;-74
2022/08/29 10:39:03;;;;;;;9.70;7.30;;;;;;;;;;5077595;28;20458;-73
2022/08/29 10:41:33;;;;;;;8.17;7.37;;;;;;;;;;5086891;28;20455;-74
2022/08/29 10:44:11;;;;;;;7.33;6.50;;;;;;;;;;5075970;28;20475;-73
2022/08/29 10:46:44;;;;;;;9.03;8.13;;;;;;;;;;5084295;28;21015;-74
2022/08/29 10:49:18;;;;;;;11.40;6.80;;;;;;;;;;5075758;28;20488;-73
2022/08/29 10:51:50;;;;;;;10.50;6.87;;;;;;;;;;5075884;28;20462;-74
2022/08/29 10:54:22;;;;;;;8.07;7.03;;;;;;;;;;5089903;28;20467;-74
2022/08/29 10:56:49;;;;;;;7.37;6.67;;;;;;;;;;5087156;28;20457;-74
2022/08/29 10:59:21;;;;;;;16.13;5.90;;;;;;;;;;5092603;28;20444;-74
2022/08/29 11:01:50;;;;;;;7.63;5.90;;;;;;;;;;5075618;28;20448;-73
2022/08/29 11:04:20;;;;;;;7.10;6.53;;;;;;;;;;5077827;28;20476;-74
2022/08/29 11:06:56;;;;;;;7.00;6.30;;;;;;;;;;5086445;28;20933;-74
2022/08/29 11:09:26;;;;;;;7.00;6.30;;;;;;;;;;5092032;28;20481;-74
2022/08/29 11:12:00;;;;;;;6.97;6.27;;;;;;;;;;5087060;28;20820;-74
2022/08/29 11:14:31;;;;;;;6.67;6.07;;;;;;;;;;5075073;28;20552;-74
2022/08/29 11:16:59;;;;;;;6.13;5.53;;;;;;;;;;5075679;28;20452;-74
2022/08/29 11:19:28;;;;;;;7.07;6.10;;;;;;;;;;5089394;28;20826;-74
2022/08/29 11:21:57;;;;;;;8.20;6.70;;;;;;;;;;5082589;28;20462;-74
2022/08/29 11:24:27;;;;;;;7.80;6.40;;;;;;;;;;5095287;28;20475;-74
2022/08/29 11:26:57;;;;;;;6.43;5.70;;;;;;;;;;5081576;28;20465;-74
2022/08/29 11:29:28;;;;;;;8.03;6.93;;;;;;;;;;5082249;28;20561;-74
2022/08/29 11:31:58;;;;;;;6.97;6.27;;;;;;;;;;5075367;28;20474;-74
2022/08/29 11:34:32;;;;;;;8.07;6.00;;;;;;;;;;5074832;28;20483;-74
2022/08/29 11:37:08;;;;;;;6.20;5.03;;;;;;;;;;5075107;28;20452;-74
2022/08/29 11:39:50;;;;;;;7.03;5.70;;;;;;;;;;5087737;28;20450;-74
2022/08/29 11:42:21;;;;;;;6.60;5.80;;;;;;;;;;5073858;28;20468;-74
2022/08/29 11:44:49;;;;;;;6.67;6.10;;;;;;;;;;5088514;28;20474;-74
2022/08/29 11:47:34;;;;;;;7.00;6.30;;;;;;;;;;5080684;28;20455;-74
2022/08/29 11:50:07;;;;;;;6.87;6.27;;;;;;;;;;5095152;28;20862;-74
2022/08/29 11:52:35;;;;;;;6.83;6.13;;;;;;;;;;5081401;28;20447;-74
2022/08/29 11:55:17;;;;;;;7.73;7.03;;;;;;;;;;5081532;28;20476;-74
2022/08/29 11:57:50;;;;;;;6.37;5.87;;;;;;;;;;5074635;28;20451;-74
2022/08/29 12:00:25;;;;;;;10.07;6.50;;;;;;;;;;5074517;28;20853;-74
2022/08/29 12:02:52;;;;;;;15.90;5.97;;;;;;;;;;5074554;28;20447;-74
2022/08/29 12:05:37;;;;;;;6.40;5.80;;;;;;;;;;5087707;28;20951;-73
2022/08/29 12:08:12;;;;;;;5.70;5.20;;;;;;;;;;5094667;28;20449;-74
2022/08/29 12:10:50;;;;;;;8.73;5.80;;;;;;;;;;5093380;28;20577;-74
2022/08/29 12:13:47;;;;;;;6.37;5.80;;;;;;;;;;5083538;28;20477;-74
2022/08/29 12:16:16;;;;;;;6.37;5.00;;;;;;;;;;5088934;28;20544;-74
2022/08/29 12:18:44;;;;;;;6.40;5.80;;;;;;;;;;5086148;28;20799;-74
2022/08/29 12:21:30;;;;;;;8.67;5.37;;;;;;;;;;5090011;28;20538;-74
2022/08/29 12:23:57;;;;;;;6.33;5.70;;;;;;;;;;5087214;28;20536;-74
2022/08/29 12:26:42;;;;;;;6.70;6.10;;;;;;;;;;5094298;28;20451;-74
2022/08/29 12:29:16;;;;;;;9.63;5.40;;;;;;;;;;5094392;28;20486;-74
2022/08/29 12:31:58;;;;;;;5.83;5.27;;;;;;;;;;5080984;28;20460;-74
2022/08/29 12:34:33;;;;;;;7.00;6.27;;;;;;;;;;5092636;28;20474;-74
2022/08/29 12:37:09;;;;;;;7.30;4.90;;;;;;;;;;5082402;28;20484;-74
2022/08/29 12:39:50;;;;;;;5.83;5.23;;;;;;;;;;5078079;28;20505;-74
2022/08/29 12:42:25;;;;;;;6.70;5.97;;;;;;;;;;5083677;28;20459;-74
2022/08/29 12:44:59;;;;;;;9.40;5.10;;;;;;;;;;5094159;28;20467;-74
2022/08/29 12:47:29;;;;;;;5.80;5.30;;;;;;;;;;5073678;28;20443;-74
2022/08/29 12:49:57;;;;;;;5.20;4.80;;;;;;;;;;5086644;28;20487;-74
2022/08/29 12:52:26;;;;;;;5.97;5.47;;;;;;;;;;5079346;28;20458;-74
2022/08/29 12:54:55;;;;;;;5.63;5.10;;;;;;;;;;5081965;28;20476;-74
2022/08/29 12:57:23;;;;;;;7.23;4.73;;;;;;;;;;5091719;28;20537;-74
2022/08/29 12:59:52;;;;;;;6.77;6.13;;;;;;;;;;5083297;28;20813;-74
2022/08/29 13:02:23;;;;;;;5.57;5.07;;;;;;;;;;5087648;28;20460;-74
2022/08/29 13:04:52;;;;;;;6.33;5.20;;;;;;;;;;5073441;28;20853;-75
2022/08/29 13:07:20;;;;;;;5.30;4.90;;;;;;;;;;5072158;28;20467;-75
2022/08/29 13:09:51;;;;;;;8.33;5.13;;;;;;;;;;5081745;28;20489;-75
2022/08/29 13:12:22;;;;;;;7.70;4.47;;;;;;;;;;5079394;28;20460;-75
2022/08/29 13:14:50;;;;;;;6.33;4.50;;;;;;;;;;5085443;28;20972;-75
2022/08/29 13:17:19;;;;;;;5.67;5.10;;;;;;;;;;5087311;28;20443;-74
2022/08/29 13:20:01;;;;;;;7.77;5.80;;;;;;;;;;5079714;28;20819;-75
2022/08/29 13:22:30;;;;;;;4.53;4.10;;;;;;;;;;5078738;28;20460;-75
2022/08/29 13:25:02;;;;;;;5.10;4.40;;;;;;;;;;5093004;28;20480;-75
2022/08/29 13:27:29;;;;;;;4.57;4.17;;;;;;;;;;5093104;28;21026;-75
2022/08/29 13:30:00;;;;;;;5.43;4.93;;;;;;;;;;5086880;28;20492;-75
2022/08/29 13:32:28;;;;;;;6.00;5.30;;;;;;;;;;5086161;28;20466;-74
2022/08/29 13:35:05;;;;;;;5.97;5.33;;;;;;;;;;5087628;28;20916;-74
2022/08/29 13:37:35;;;;;;;5.37;4.87;;;;;;;;;;5090979;28;20520;-74
2022/08/29 13:40:21;;;;;;;6.63;5.50;;;;;;;;;;5087866;28;20451;-74
2022/08/29 13:42:48;;;;;;;5.40;4.90;;;;;;;;;;5092586;28;20458;-74
2022/08/29 13:45:20;;;;;;;5.90;5.27;;;;;;;;;;5090266;28;20479;-74
2022/08/29 13:47:52;;;;;;;6.33;4.43;;;;;;;;;;5072607;28;20535;-74
2022/08/29 13:50:19;;;;;;;4.97;4.53;;;;;;;;;;5072391;28;20487;-74
2022/08/29 13:52:50;;;;;;;4.17;3.77;;;;;;;;;;5072614;28;20454;-74
2022/08/29 13:55:17;;;;;;;5.37;4.87;;;;;;;;;;5072213;28;20995;-75
2022/08/29 13:57:47;;;;;;;5.00;4.50;;;;;;;;;;5079831;28;20477;-75
2022/08/29 14:00:14;;;;;;;4.90;4.30;;;;;;;;;;5092787;28;20446;-75
2022/08/29 14:02:42;;;;;;;5.70;4.90;;;;;;;;;;5078547;28;20459;-74
2022/08/29 14:05:13;;;;;;;7.20;5.50;;;;;;;;;;5080292;28;20467;-74
2022/08/29 14:07:41;;;;;;;4.97;4.57;;;;;;;;;;5076602;28;20469;-74
2022/08/29 14:10:12;;;;;;;8.67;4.80;;;;;;;;;;5092593;28;20483;-74
2022/08/29 14:12:39;;;;;;;5.90;4.63;;;;;;;;;;5078368;28;20463;-75
2022/08/29 14:15:07;;;;;;;6.93;4.60;;;;;;;;;;5092251;28;20477;-74
2022/08/29 14:17:35;;;;;;;5.87;5.27;;;;;;;;;;5092308;28;20450;-74
2022/08/29 14:20:04;;;;;;;6.43;4.80;;;;;;;;;;5086893;28;20451;-74
2022/08/29 14:22:31;;;;;;;5.60;5.10;;;;;;;;;;5076249;28;21020;-74
2022/08/29 14:24:59;;;;;;;6.50;3.90;;;;;;;;;;5083622;28;20478;-75
2022/08/29 14:27:28;;;;;;;4.97;4.53;;;;;;;;;;5096399;28;20469;-74
2022/08/29 14:29:56;;;;;;;5.10;4.57;;;;;;;;;;5082314;28;20486;-74
2022/08/29 14:32:24;;;;;;;7.10;5.03;;;;;;;;;;5096467;28;20460;-74
2022/08/29 14:34:51;;;;;;;5.17;4.60;;;;;;;;;;5091323;28;20481;-74
2022/08/29 14:37:19;;;;;;;6.60;5.53;;;;;;;;;;5076016;28;20459;-74
2022/08/29 14:39:46;;;;;;;6.13;5.00;;;;;;;;;;5090380;28;20967;-74
2022/08/29 14:42:13;;;;;;;9.17;5.70;;;;;;;;;;5075856;28;20463;-74
2022/08/29 14:44:41;;;;;;;6.57;6.00;;;;;;;;;;5091430;28;20475;-74
2022/08/29 14:47:08;;;;;;;6.23;5.63;;;;;;;;;;5081959;28;20447;-74
2022/08/29 14:49:35;;;;;;;7.47;6.63;;;;;;;;;;5096104;28;20831;-73
2022/08/29 14:52:03;;;;;;;6.67;5.63;;;;;;;;;;5096227;28;20451;-73